createdAt,value
2023-02-15T00:00:16.201Z,99.90
2023-02-15T00:00:38.980Z,99.90
2023-02-15T00:01:07.711Z,99.90
2023-02-15T00:01:30.733Z,99.90
2023-02-15T00:01:53.546Z,99.90
2023-02-15T00:02:16.848Z,99.90
2023-02-15T00:02:39.645Z,99.90
2023-02-15T00:03:02.490Z,99.90
2023-02-15T00:03:25.447Z,99.90
2023-02-15T00:03:49.948Z,99.90
2023-02-15T00:04:14.488Z,99.90
2023-02-15T00:04:49.451Z,99.90
2023-02-15T00:05:12.230Z,83.40
2023-02-15T00:05:36.567Z,62.90
2023-02-15T00:05:59.618Z,16.80
2023-02-15T00:06:22.683Z,1.00
2023-02-15T00:06:45.440Z,1.00
2023-02-15T00:07:08.184Z,1.00
2023-02-15T00:07:30.967Z,1.00
2023-02-15T00:07:53.661Z,1.00
2023-02-15T00:08:16.494Z,1.00
2023-02-15T00:08:39.285Z,1.00
2023-02-15T00:09:02.199Z,1.00
2023-02-15T00:09:25.113Z,1.00
2023-02-15T00:09:47.867Z,1.00
2023-02-15T00:10:13.069Z,1.00
2023-02-15T00:10:35.919Z,1.00
2023-02-15T00:11:06.742Z,1.00
2023-02-15T00:11:41.566Z,1.00
2023-02-15T00:12:04.586Z,1.00
2023-02-15T00:12:27.384Z,1.00
2023-02-15T00:12:50.037Z,1.00
2023-02-15T00:13:12.827Z,1.00
2023-02-15T00:13:37.162Z,1.00
2023-02-15T00:13:59.923Z,1.00
2023-02-15T00:14:24.023Z,1.00
2023-02-15T00:14:46.861Z,1.00
2023-02-15T00:15:09.817Z,1.00
2023-02-15T00:15:32.642Z,1.00
2023-02-15T00:15:55.379Z,1.00
2023-02-15T00:16:18.114Z,1.00
2023-02-15T00:16:40.900Z,1.00
2023-02-15T00:17:03.703Z,1.00
2023-02-15T00:17:28.502Z,1.00
2023-02-15T00:17:51.213Z,1.00
2023-02-15T00:18:13.978Z,1.00
2023-02-15T00:18:36.674Z,1.00
2023-02-15T00:19:02.905Z,1.00
2023-02-15T00:19:25.730Z,1.00
2023-02-15T00:19:48.509Z,1.00
2023-02-15T00:20:12.048Z,1.00
2023-02-15T00:20:36.289Z,1.00
2023-02-15T00:20:59.102Z,1.00
2023-02-15T00:21:21.813Z,1.00
2023-02-15T00:21:47.087Z,1.00
2023-02-15T00:22:09.826Z,1.00
2023-02-15T00:22:32.592Z,1.00
2023-02-15T00:22:55.297Z,1.00
2023-02-15T00:23:18.008Z,1.00
2023-02-15T00:23:40.818Z,1.00
2023-02-15T00:24:04.805Z,1.00
2023-02-15T00:24:27.778Z,1.00
2023-02-15T00:24:52.727Z,1.00
2023-02-15T00:25:15.552Z,1.00
2023-02-15T00:25:38.326Z,1.00
2023-02-15T00:26:07.549Z,1.00
2023-02-15T00:26:30.376Z,1.00
2023-02-15T00:26:55.597Z,1.00
2023-02-15T00:27:18.322Z,1.00
2023-02-15T00:27:41.068Z,1.00
2023-02-15T00:28:03.831Z,1.00
2023-02-15T00:28:26.579Z,99.90
2023-02-15T00:28:49.245Z,99.90
2023-02-15T00:29:12.667Z,1.00
2023-02-15T00:29:35.496Z,1.00
2023-02-15T00:29:58.276Z,99.90
2023-02-15T00:30:21.286Z,1.00
2023-02-15T00:30:44.128Z,99.90
2023-02-15T00:31:07.702Z,1.00
2023-02-15T00:31:34.345Z,1.00
2023-02-15T00:31:57.422Z,1.00
2023-02-15T00:32:20.141Z,1.00
2023-02-15T00:32:42.837Z,1.00
2023-02-15T00:33:08.377Z,1.00
2023-02-15T00:33:31.050Z,1.00
2023-02-15T00:33:54.802Z,1.00
2023-02-15T00:34:18.307Z,1.00
2023-02-15T00:34:41.062Z,1.00
2023-02-15T00:35:03.924Z,1.00
2023-02-15T00:35:26.677Z,1.00
2023-02-15T00:35:57.325Z,1.00
2023-02-15T00:36:20.017Z,1.00
2023-02-15T00:36:43.077Z,1.00
2023-02-15T00:37:05.796Z,1.00
2023-02-15T00:37:28.668Z,1.00
2023-02-15T00:37:51.386Z,1.00
2023-02-15T00:38:14.179Z,1.00
2023-02-15T00:38:37.565Z,1.00
2023-02-15T00:39:00.344Z,1.00
2023-02-15T00:39:23.083Z,1.00
2023-02-15T00:39:45.786Z,1.00
2023-02-15T00:40:10.268Z,1.00
2023-02-15T00:40:33.086Z,1.00
2023-02-15T00:40:55.833Z,1.00
2023-02-15T00:41:19.634Z,1.00
2023-02-15T00:41:42.587Z,1.00
2023-02-15T00:42:05.488Z,1.00
2023-02-15T00:42:28.183Z,1.00
2023-02-15T00:42:51.040Z,1.00
2023-02-15T00:43:13.778Z,1.00
2023-02-15T00:43:36.875Z,1.00
2023-02-15T00:43:59.608Z,1.00
2023-02-15T00:44:22.337Z,1.00
2023-02-15T00:44:45.443Z,1.00
2023-02-15T00:45:10.176Z,1.00
2023-02-15T00:45:32.951Z,1.00
2023-02-15T00:45:58.610Z,1.00
2023-02-15T00:46:21.446Z,1.00
2023-02-15T00:46:44.334Z,1.00
2023-02-15T00:47:07.042Z,1.00
2023-02-15T00:47:29.716Z,1.00
2023-02-15T00:47:52.432Z,1.00
2023-02-15T00:48:15.216Z,1.00
2023-02-15T00:48:38.025Z,1.00
2023-02-15T00:49:00.828Z,1.00
2023-02-15T00:49:23.548Z,1.00
2023-02-15T00:49:46.709Z,1.00
2023-02-15T00:50:10.150Z,1.00
2023-02-15T00:50:32.843Z,1.00
2023-02-15T00:50:58.037Z,1.00
2023-02-15T00:51:21.597Z,1.00
2023-02-15T00:51:44.502Z,1.00
2023-02-15T00:52:07.260Z,1.00
2023-02-15T00:52:30.012Z,1.00
2023-02-15T00:52:52.959Z,1.00
2023-02-15T00:53:15.688Z,1.00
2023-02-15T00:53:38.425Z,1.00
2023-02-15T00:54:01.167Z,1.00
2023-02-15T00:54:23.861Z,1.00
2023-02-15T00:54:46.599Z,1.00
2023-02-15T00:55:09.365Z,1.00
2023-02-15T00:55:32.114Z,1.00
2023-02-15T00:55:54.873Z,1.00
2023-02-15T00:56:17.542Z,1.00
2023-02-15T00:56:40.228Z,1.00
2023-02-15T00:57:03.040Z,1.00
2023-02-15T00:57:25.821Z,1.00
2023-02-15T00:57:48.599Z,1.00
2023-02-15T00:58:11.554Z,1.00
2023-02-15T00:58:34.254Z,1.00
2023-02-15T00:58:57.072Z,1.00
2023-02-15T00:59:19.854Z,1.00
2023-02-15T00:59:42.612Z,1.00
2023-02-15T01:00:06.740Z,1.00
2023-02-15T01:00:29.546Z,1.00
2023-02-15T01:00:52.602Z,1.00
2023-02-15T01:01:16.835Z,1.00
2023-02-15T01:01:39.643Z,1.00
2023-02-15T01:02:02.415Z,1.00
2023-02-15T01:02:25.129Z,1.00
2023-02-15T01:02:47.853Z,1.00
2023-02-15T01:03:10.706Z,1.00
2023-02-15T01:03:33.608Z,1.00
2023-02-15T01:03:56.328Z,1.00
2023-02-15T01:04:19.136Z,1.00
2023-02-15T01:04:41.912Z,1.00
2023-02-15T01:05:07.534Z,1.00
2023-02-15T01:05:31.083Z,1.00
2023-02-15T01:05:54.042Z,1.00
2023-02-15T01:06:18.371Z,1.00
2023-02-15T01:06:41.132Z,1.00
2023-02-15T01:07:04.761Z,1.00
2023-02-15T01:07:29.940Z,1.00
2023-02-15T01:07:54.445Z,1.00
2023-02-15T01:08:17.730Z,1.00
2023-02-15T01:08:40.602Z,1.00
2023-02-15T01:09:03.314Z,1.00
2023-02-15T01:09:26.174Z,1.00
2023-02-15T01:09:48.921Z,1.00
2023-02-15T01:10:13.881Z,1.00
2023-02-15T01:10:36.738Z,1.00
2023-02-15T01:11:03.910Z,1.00
2023-02-15T01:11:26.648Z,1.00
2023-02-15T01:11:49.373Z,1.00
2023-02-15T01:12:12.138Z,1.00
2023-02-15T01:12:37.617Z,1.00
2023-02-15T01:13:00.355Z,1.00
2023-02-15T01:13:23.149Z,1.00
2023-02-15T01:13:45.970Z,1.00
2023-02-15T01:14:08.817Z,1.00
2023-02-15T01:14:31.606Z,1.00
2023-02-15T01:14:54.401Z,1.00
2023-02-15T01:15:17.256Z,1.00
2023-02-15T01:15:41.861Z,1.00
2023-02-15T01:16:06.355Z,1.00
2023-02-15T01:16:29.792Z,1.00
2023-02-15T01:16:52.617Z,1.00
2023-02-15T01:17:15.351Z,1.00
2023-02-15T01:17:38.107Z,1.00
2023-02-15T01:18:00.813Z,1.00
2023-02-15T01:18:23.782Z,1.00
2023-02-15T01:18:46.850Z,1.00
2023-02-15T01:19:09.639Z,1.00
2023-02-15T01:19:32.323Z,1.00
2023-02-15T01:19:55.002Z,1.00
2023-02-15T01:20:18.031Z,1.00
2023-02-15T01:20:42.649Z,1.00
2023-02-15T01:21:11.833Z,1.00
2023-02-15T01:21:36.119Z,1.00
2023-02-15T01:21:58.909Z,1.00
2023-02-15T01:22:21.677Z,1.00
2023-02-15T01:22:47.574Z,1.00
2023-02-15T01:23:10.396Z,1.00
2023-02-15T01:23:37.515Z,1.00
2023-02-15T01:24:00.236Z,1.00
2023-02-15T01:24:22.897Z,1.00
2023-02-15T01:24:45.771Z,1.00
2023-02-15T01:25:08.650Z,1.00
2023-02-15T01:25:31.349Z,1.00
2023-02-15T01:25:54.092Z,1.00
2023-02-15T01:26:16.913Z,1.00
2023-02-15T01:26:39.661Z,1.00
2023-02-15T01:27:02.439Z,1.00
2023-02-15T01:27:25.204Z,1.00
2023-02-15T01:27:48.119Z,1.00
2023-02-15T01:28:10.822Z,1.00
2023-02-15T01:28:33.879Z,1.00
2023-02-15T01:28:57.212Z,1.00
2023-02-15T01:29:20.120Z,1.00
2023-02-15T01:29:42.931Z,1.00
2023-02-15T01:30:07.059Z,1.00
2023-02-15T01:30:29.835Z,1.00
2023-02-15T01:30:52.670Z,1.00
2023-02-15T01:31:16.557Z,1.00
2023-02-15T01:31:40.272Z,1.00
2023-02-15T01:32:03.072Z,1.00
2023-02-15T01:32:26.199Z,1.00
2023-02-15T01:32:48.912Z,1.00
2023-02-15T01:33:18.949Z,1.00
2023-02-15T01:33:42.041Z,1.00
2023-02-15T01:34:04.751Z,1.00
2023-02-15T01:34:27.516Z,1.00
2023-02-15T01:34:50.280Z,1.00
2023-02-15T01:35:13.046Z,1.00
2023-02-15T01:35:35.845Z,1.00
2023-02-15T01:35:59.118Z,1.00
2023-02-15T01:36:22.074Z,1.00
2023-02-15T01:36:46.336Z,1.00
2023-02-15T01:37:09.071Z,1.00
2023-02-15T01:37:32.374Z,1.00
2023-02-15T01:37:55.696Z,1.00
2023-02-15T01:38:18.395Z,1.00
2023-02-15T01:38:41.181Z,1.00
2023-02-15T01:39:04.095Z,1.00
2023-02-15T01:39:27.041Z,1.00
2023-02-15T01:39:49.745Z,1.00
2023-02-15T01:40:15.055Z,1.00
2023-02-15T01:40:37.829Z,1.00
2023-02-15T01:41:19.254Z,1.00
2023-02-15T01:41:41.973Z,1.00
2023-02-15T01:42:04.719Z,1.00
2023-02-15T01:42:29.952Z,1.00
2023-02-15T01:42:52.794Z,1.00
2023-02-15T01:43:15.601Z,1.00
2023-02-15T01:43:42.314Z,1.00
2023-02-15T01:44:20.090Z,1.00
2023-02-15T01:44:49.374Z,1.00
2023-02-15T01:45:20.439Z,1.00
2023-02-15T01:45:45.464Z,1.00
2023-02-15T01:46:08.244Z,1.00
2023-02-15T01:46:34.677Z,1.00
2023-02-15T01:46:57.449Z,1.00
2023-02-15T01:47:24.030Z,1.00
2023-02-15T01:47:48.507Z,1.00
2023-02-15T01:48:18.788Z,1.00
2023-02-15T01:48:42.943Z,1.00
2023-02-15T01:49:09.779Z,1.00
2023-02-15T01:49:34.902Z,1.00
2023-02-15T01:50:04.793Z,1.00
2023-02-15T01:50:30.412Z,1.00
2023-02-15T01:50:54.927Z,1.00
2023-02-15T01:51:18.898Z,1.00
2023-02-15T01:51:41.643Z,1.00
2023-02-15T01:52:05.774Z,1.00
2023-02-15T01:52:28.457Z,1.00
2023-02-15T01:52:53.867Z,1.00
2023-02-15T01:53:18.403Z,1.00
2023-02-15T01:53:43.147Z,1.00
2023-02-15T01:54:08.727Z,1.00
2023-02-15T01:54:32.586Z,1.00
2023-02-15T01:54:55.358Z,1.00
2023-02-15T01:55:20.547Z,1.00
2023-02-15T01:55:45.793Z,1.00
2023-02-15T01:56:09.926Z,1.00
2023-02-15T01:56:34.586Z,1.00
2023-02-15T01:56:59.198Z,1.00
2023-02-15T01:57:23.952Z,1.00
2023-02-15T01:57:47.401Z,1.00
2023-02-15T01:58:10.227Z,1.00
2023-02-15T01:58:32.979Z,1.00
2023-02-15T01:58:56.850Z,1.00
2023-02-15T01:59:21.478Z,1.00
2023-02-15T01:59:46.645Z,1.00
2023-02-15T02:00:10.099Z,1.00
2023-02-15T02:00:32.937Z,1.00
2023-02-15T02:00:55.870Z,1.00
2023-02-15T02:01:18.602Z,1.00
2023-02-15T02:01:41.352Z,1.00
2023-02-15T02:02:04.074Z,1.00
2023-02-15T02:02:26.877Z,1.00
2023-02-15T02:02:50.916Z,1.00
2023-02-15T02:03:13.741Z,1.00
2023-02-15T02:03:40.170Z,1.00
2023-02-15T02:04:06.615Z,1.00
2023-02-15T02:04:32.536Z,1.00
2023-02-15T02:04:56.816Z,1.00
2023-02-15T02:05:19.656Z,1.00
2023-02-15T02:05:42.570Z,1.00
2023-02-15T02:06:05.556Z,1.00
2023-02-15T02:06:28.256Z,1.00
2023-02-15T02:06:51.104Z,1.00
2023-02-15T02:07:16.283Z,1.00
2023-02-15T02:07:41.304Z,1.00
2023-02-15T02:08:04.073Z,1.00
2023-02-15T02:08:26.836Z,1.00
2023-02-15T02:08:49.623Z,1.00
2023-02-15T02:09:13.823Z,1.00
2023-02-15T02:09:37.186Z,1.00
2023-02-15T02:09:59.821Z,1.00
2023-02-15T02:10:24.206Z,1.00
2023-02-15T02:10:46.940Z,1.00
2023-02-15T02:11:12.175Z,1.00
2023-02-15T02:11:35.214Z,1.00
2023-02-15T02:11:57.956Z,1.00
2023-02-15T02:12:20.938Z,1.00
2023-02-15T02:12:44.985Z,1.00
2023-02-15T02:13:08.016Z,1.00
2023-02-15T02:13:30.730Z,1.00
2023-02-15T02:13:53.568Z,1.00
2023-02-15T02:14:16.814Z,1.00
2023-02-15T02:14:39.650Z,1.00
2023-02-15T02:15:02.336Z,1.00
2023-02-15T02:15:29.689Z,1.00
2023-02-15T02:15:55.592Z,1.00
2023-02-15T02:16:21.482Z,1.00
2023-02-15T02:16:48.308Z,1.00
2023-02-15T02:17:14.744Z,1.00
2023-02-15T02:17:42.424Z,1.00
2023-02-15T02:18:10.021Z,1.00
2023-02-15T02:18:38.915Z,1.00
2023-02-15T02:19:21.305Z,1.00
2023-02-15T02:20:17.918Z,1.00
2023-02-15T02:21:13.856Z,1.00
2023-02-15T02:22:03.375Z,1.00
2023-02-15T02:22:51.082Z,1.00
2023-02-15T02:23:20.010Z,1.00
2023-02-15T02:24:07.219Z,1.00
2023-02-15T02:24:52.481Z,1.00
2023-02-15T02:25:44.880Z,1.00
2023-02-15T02:26:28.724Z,1.00
2023-02-15T02:27:19.545Z,1.00
2023-02-15T02:27:43.162Z,1.00
2023-02-15T02:28:10.990Z,1.00
2023-02-15T02:28:47.686Z,1.00
2023-02-15T02:29:37.285Z,1.00
2023-02-15T02:30:28.320Z,1.00
2023-02-15T02:31:01.279Z,1.00
2023-02-15T02:31:56.198Z,1.00
2023-02-15T02:32:51.746Z,1.00
2023-02-15T02:33:42.856Z,1.00
2023-02-15T02:34:05.973Z,1.00
2023-02-15T02:34:30.553Z,1.00
2023-02-15T02:34:56.035Z,1.00
2023-02-15T02:35:20.720Z,1.00
2023-02-15T02:35:48.005Z,1.00
2023-02-15T02:36:20.277Z,1.00
2023-02-15T02:36:45.870Z,1.00
2023-02-15T02:37:12.369Z,1.00
2023-02-15T02:37:37.089Z,1.00
2023-02-15T02:38:04.691Z,1.00
2023-02-15T02:38:30.264Z,1.00
2023-02-15T02:39:09.813Z,1.00
2023-02-15T02:39:35.048Z,1.00
2023-02-15T02:40:02.249Z,1.00
2023-02-15T02:40:27.224Z,1.00
2023-02-15T02:40:54.150Z,1.00
2023-02-15T02:41:22.244Z,1.00
2023-02-15T02:41:49.556Z,1.00
2023-02-15T02:42:14.405Z,1.00
2023-02-15T02:42:39.051Z,1.00
2023-02-15T02:43:03.366Z,1.00
2023-02-15T02:43:29.068Z,1.00
2023-02-15T02:43:55.268Z,1.00
2023-02-15T02:44:19.893Z,1.00
2023-02-15T02:44:44.650Z,1.00
2023-02-15T02:45:08.619Z,1.00
2023-02-15T02:45:40.592Z,1.00
2023-02-15T02:46:06.687Z,1.00
2023-02-15T02:46:31.564Z,1.00
2023-02-15T02:46:55.744Z,1.00
2023-02-15T02:47:21.125Z,1.00
2023-02-15T02:47:47.930Z,1.00
2023-02-15T02:48:15.455Z,1.00
2023-02-15T02:48:38.232Z,1.00
2023-02-15T02:49:00.931Z,1.00
2023-02-15T02:49:33.781Z,1.00
2023-02-15T02:50:00.428Z,1.00
2023-02-15T02:50:24.679Z,1.00
2023-02-15T02:50:47.619Z,1.00
2023-02-15T02:51:10.690Z,1.00
2023-02-15T02:51:33.440Z,1.00
2023-02-15T02:52:00.167Z,1.00
2023-02-15T02:52:49.840Z,1.00
2023-02-15T02:53:12.576Z,1.00
2023-02-15T02:53:37.633Z,1.00
2023-02-15T02:54:02.261Z,1.00
2023-02-15T02:54:24.920Z,1.00
2023-02-15T02:54:47.605Z,1.00
2023-02-15T02:55:16.670Z,1.00
2023-02-15T02:55:40.971Z,1.00
2023-02-15T02:56:07.375Z,1.00
2023-02-15T02:56:31.745Z,1.00
2023-02-15T02:56:54.502Z,1.00
2023-02-15T02:57:17.336Z,1.00
2023-02-15T02:57:44.350Z,1.00
2023-02-15T02:58:08.676Z,1.00
2023-02-15T02:58:34.737Z,1.00
2023-02-15T02:59:00.504Z,1.00
2023-02-15T02:59:25.789Z,1.00
2023-02-15T02:59:48.460Z,1.00
2023-02-15T03:00:12.490Z,1.00
2023-02-15T03:00:37.443Z,1.00
2023-02-15T03:01:07.103Z,1.00
2023-02-15T03:01:32.858Z,1.00
2023-02-15T03:01:57.003Z,1.00
2023-02-15T03:02:22.409Z,1.00
2023-02-15T03:02:46.133Z,1.00
2023-02-15T03:03:13.240Z,1.00
2023-02-15T03:03:37.961Z,1.00
2023-02-15T03:04:02.333Z,1.00
2023-02-15T03:04:26.053Z,1.00
2023-02-15T03:04:50.671Z,1.00
2023-02-15T03:05:15.608Z,1.00
2023-02-15T03:05:40.656Z,1.00
2023-02-15T03:06:04.599Z,1.00
2023-02-15T03:06:30.260Z,1.00
2023-02-15T03:06:54.178Z,1.00
2023-02-15T03:07:23.377Z,1.00
2023-02-15T03:07:47.221Z,1.00
2023-02-15T03:08:10.909Z,1.00
2023-02-15T03:08:35.234Z,1.00
2023-02-15T03:09:15.462Z,1.00
2023-02-15T03:09:45.046Z,1.00
2023-02-15T03:10:08.733Z,1.00
2023-02-15T03:10:31.495Z,1.00
2023-02-15T03:10:55.706Z,1.00
2023-02-15T03:11:18.454Z,1.00
2023-02-15T03:11:42.232Z,1.00
2023-02-15T03:12:05.659Z,1.00
2023-02-15T03:12:30.687Z,1.00
2023-02-15T03:12:53.440Z,1.00
2023-02-15T03:13:16.277Z,1.00
2023-02-15T03:13:41.282Z,1.00
2023-02-15T03:14:05.096Z,15.30
2023-02-15T03:14:27.854Z,12.00
2023-02-15T03:14:52.567Z,43.50
2023-02-15T03:15:17.768Z,45.50
2023-02-15T03:15:59.758Z,51.70
2023-02-15T03:16:28.591Z,85.20
2023-02-15T03:16:51.409Z,93.00
2023-02-15T03:17:14.118Z,91.00
2023-02-15T03:17:38.938Z,93.70
2023-02-15T03:18:03.947Z,98.00
2023-02-15T03:18:30.073Z,99.90
2023-02-15T03:18:58.426Z,99.90
2023-02-15T03:19:23.859Z,99.90
2023-02-15T03:19:46.913Z,85.10
2023-02-15T03:20:12.377Z,66.90
2023-02-15T03:20:36.809Z,68.40
2023-02-15T03:20:59.608Z,20.90
2023-02-15T03:21:23.391Z,97.80
2023-02-15T03:22:04.597Z,31.30
2023-02-15T03:22:29.573Z,24.90
2023-02-15T03:22:54.601Z,9.80
2023-02-15T03:23:18.723Z,11.90
2023-02-15T03:23:41.375Z,17.20
2023-02-15T03:24:08.092Z,34.20
2023-02-15T03:24:33.428Z,33.80
2023-02-15T03:24:58.574Z,70.80
2023-02-15T03:25:22.590Z,92.80
2023-02-15T03:25:47.556Z,95.40
2023-02-15T03:26:12.346Z,99.90
2023-02-15T03:26:35.098Z,99.90
2023-02-15T03:26:57.825Z,99.90
2023-02-15T03:27:21.646Z,99.90
2023-02-15T03:27:47.250Z,99.90
2023-02-15T03:28:12.267Z,99.90
2023-02-15T03:28:36.846Z,99.90
2023-02-15T03:28:59.544Z,99.90
2023-02-15T03:29:23.641Z,99.90
2023-02-15T03:29:46.470Z,99.90
2023-02-15T03:30:10.242Z,99.90
2023-02-15T03:30:32.998Z,99.90
2023-02-15T03:30:57.454Z,99.90
2023-02-15T03:31:20.573Z,99.90
2023-02-15T03:31:45.481Z,99.90
2023-02-15T03:32:09.954Z,99.90
2023-02-15T03:32:32.972Z,99.90
2023-02-15T03:32:55.691Z,99.90
2023-02-15T03:33:18.478Z,99.90
2023-02-15T03:33:45.740Z,99.90
2023-02-15T03:34:09.708Z,1.00
2023-02-15T03:34:32.486Z,1.00
2023-02-15T03:34:55.691Z,1.00
2023-02-15T03:35:18.883Z,99.90
2023-02-15T03:35:46.043Z,99.90
2023-02-15T03:36:11.230Z,99.90
2023-02-15T03:36:37.451Z,99.90
2023-02-15T03:37:05.587Z,99.90
2023-02-15T03:37:33.798Z,99.90
2023-02-15T03:37:58.751Z,99.90
2023-02-15T03:38:23.864Z,99.90
2023-02-15T03:38:50.571Z,99.90
2023-02-15T03:39:18.808Z,99.90
2023-02-15T03:39:45.787Z,99.90
2023-02-15T03:40:29.975Z,99.90
2023-02-15T03:41:11.148Z,99.90
2023-02-15T03:41:35.265Z,99.90
2023-02-15T03:41:59.563Z,99.90
2023-02-15T03:42:26.237Z,99.90
2023-02-15T03:42:49.956Z,99.90
2023-02-15T03:43:14.364Z,99.90
2023-02-15T03:43:41.531Z,99.90
2023-02-15T03:44:08.026Z,99.90
2023-02-15T03:44:32.096Z,99.90
2023-02-15T03:44:58.486Z,99.90
2023-02-15T03:45:24.580Z,99.90
2023-02-15T03:45:55.918Z,99.90
2023-02-15T03:46:21.875Z,99.90
2023-02-15T03:46:46.667Z,99.90
2023-02-15T03:47:12.389Z,99.90
2023-02-15T03:47:36.334Z,99.90
2023-02-15T03:47:59.900Z,99.90
2023-02-15T03:48:24.430Z,99.90
2023-02-15T03:48:50.910Z,99.90
2023-02-15T03:49:16.679Z,99.90
2023-02-15T03:49:42.522Z,99.90
2023-02-15T03:50:26.763Z,99.90
2023-02-15T03:51:12.625Z,99.90
2023-02-15T03:51:39.044Z,99.90
2023-02-15T03:52:02.112Z,1.00
2023-02-15T03:52:26.257Z,1.00
2023-02-15T03:52:51.976Z,1.00
2023-02-15T03:53:16.142Z,1.00
2023-02-15T03:53:39.965Z,1.00
2023-02-15T03:54:04.597Z,1.00
2023-02-15T03:54:43.793Z,1.00
2023-02-15T03:55:07.189Z,99.90
2023-02-15T03:55:29.883Z,99.90
2023-02-15T03:55:55.528Z,99.90
2023-02-15T03:56:18.211Z,99.90
2023-02-15T03:56:42.297Z,99.90
2023-02-15T03:57:23.427Z,99.90
2023-02-15T03:58:04.681Z,99.90
2023-02-15T03:58:45.876Z,99.90
2023-02-15T03:59:27.445Z,99.90
2023-02-15T04:00:08.850Z,99.90
2023-02-15T04:00:50.521Z,99.90
2023-02-15T04:01:36.898Z,99.90
2023-02-15T04:02:05.511Z,99.90
2023-02-15T04:02:29.149Z,99.90
2023-02-15T04:03:07.424Z,99.90
2023-02-15T04:03:32.424Z,99.90
2023-02-15T04:03:58.805Z,99.90
2023-02-15T04:04:24.663Z,99.90
2023-02-15T04:04:48.977Z,99.90
2023-02-15T04:05:11.794Z,99.90
2023-02-15T04:05:34.520Z,99.90
2023-02-15T04:05:57.355Z,99.90
2023-02-15T04:06:20.123Z,99.90
2023-02-15T04:06:42.890Z,99.90
2023-02-15T04:07:06.922Z,99.90
2023-02-15T04:07:29.710Z,99.90
2023-02-15T04:07:52.450Z,99.90
2023-02-15T04:08:15.227Z,99.90
2023-02-15T04:08:56.461Z,99.90
2023-02-15T04:09:37.424Z,99.90
2023-02-15T04:10:18.769Z,99.90
2023-02-15T04:10:53.566Z,99.90
2023-02-15T04:11:16.337Z,99.90
2023-02-15T04:11:39.052Z,99.90
2023-02-15T04:12:04.947Z,99.90
2023-02-15T04:12:27.692Z,99.90
2023-02-15T04:12:50.375Z,99.90
2023-02-15T04:13:13.302Z,99.90
2023-02-15T04:13:36.712Z,99.90
2023-02-15T04:13:59.877Z,99.90
2023-02-15T04:14:41.127Z,99.90
2023-02-15T04:15:22.671Z,99.90
2023-02-15T04:16:04.221Z,99.90
2023-02-15T04:16:29.305Z,99.90
2023-02-15T04:16:53.774Z,63.80
2023-02-15T04:17:16.588Z,91.60
2023-02-15T04:17:39.341Z,71.40
2023-02-15T04:18:03.915Z,61.60
2023-02-15T04:18:45.539Z,65.30
2023-02-15T04:19:28.758Z,77.40
2023-02-15T04:20:09.662Z,80.40
2023-02-15T04:20:50.816Z,94.10
2023-02-15T04:21:32.296Z,71.20
2023-02-15T04:22:13.902Z,54.80
2023-02-15T04:22:55.466Z,82.50
2023-02-15T04:23:36.657Z,99.90
2023-02-15T04:24:18.096Z,99.90
2023-02-15T04:24:59.851Z,91.90
2023-02-15T04:25:22.656Z,99.90
2023-02-15T04:25:45.483Z,99.90
2023-02-15T04:26:08.200Z,99.90
2023-02-15T04:26:30.957Z,99.90
2023-02-15T04:26:54.271Z,99.90
2023-02-15T04:27:17.880Z,90.80
2023-02-15T04:27:42.820Z,96.90
2023-02-15T04:28:05.576Z,84.00
2023-02-15T04:28:28.330Z,83.00
2023-02-15T04:28:51.065Z,73.20
2023-02-15T04:29:13.934Z,96.80
2023-02-15T04:29:36.815Z,99.90
2023-02-15T04:29:59.709Z,99.90
2023-02-15T04:30:23.899Z,99.90
2023-02-15T04:30:47.338Z,86.00
2023-02-15T04:31:10.273Z,56.00
2023-02-15T04:31:33.416Z,50.60
2023-02-15T04:31:57.217Z,28.00
2023-02-15T04:32:20.066Z,27.00
2023-02-15T04:32:42.964Z,1.00
2023-02-15T04:33:05.810Z,1.00
2023-02-15T04:33:28.610Z,1.00
2023-02-15T04:33:51.321Z,1.00
2023-02-15T04:34:15.750Z,1.00
2023-02-15T04:34:38.387Z,1.00
2023-02-15T04:35:01.127Z,1.00
2023-02-15T04:35:23.952Z,1.00
2023-02-15T04:35:46.663Z,1.00
2023-02-15T04:36:09.444Z,1.00
2023-02-15T04:36:32.180Z,1.00
2023-02-15T04:36:54.897Z,1.00
2023-02-15T04:37:17.613Z,1.00
2023-02-15T04:37:40.629Z,1.00
2023-02-15T04:38:03.364Z,1.00
2023-02-15T04:38:26.227Z,1.00
2023-02-15T04:38:48.974Z,1.00
2023-02-15T04:39:13.920Z,1.00
2023-02-15T04:39:36.644Z,1.00
2023-02-15T04:40:02.377Z,1.00
2023-02-15T04:40:25.144Z,1.00
2023-02-15T04:40:52.019Z,1.00
2023-02-15T04:41:14.746Z,1.00
2023-02-15T04:41:38.124Z,1.00
2023-02-15T04:42:00.839Z,1.00
2023-02-15T04:42:23.483Z,1.00
2023-02-15T04:42:48.182Z,1.00
2023-02-15T04:43:10.883Z,1.00
2023-02-15T04:43:33.675Z,1.00
2023-02-15T04:43:57.317Z,1.00
2023-02-15T04:44:20.038Z,1.00
2023-02-15T04:44:42.757Z,1.00
2023-02-15T04:45:05.888Z,1.00
2023-02-15T04:45:29.247Z,1.00
2023-02-15T04:45:52.300Z,1.00
2023-02-15T04:46:15.228Z,1.00
2023-02-15T04:46:38.145Z,1.00
2023-02-15T04:47:00.941Z,1.00
2023-02-15T04:47:23.703Z,1.00
2023-02-15T04:47:46.411Z,1.00
2023-02-15T04:48:11.688Z,1.00
2023-02-15T04:48:34.548Z,1.00
2023-02-15T04:48:57.380Z,1.00
2023-02-15T04:49:21.676Z,1.00
2023-02-15T04:49:44.428Z,1.00
2023-02-15T04:50:08.513Z,1.00
2023-02-15T04:50:31.198Z,1.00
2023-02-15T04:50:53.909Z,1.00
2023-02-15T04:51:16.693Z,1.00
2023-02-15T04:51:39.366Z,1.00
2023-02-15T04:52:02.101Z,1.00
2023-02-15T04:52:24.797Z,1.00
2023-02-15T04:52:47.778Z,1.00
2023-02-15T04:53:10.729Z,1.00
2023-02-15T04:53:33.639Z,1.00
2023-02-15T04:53:58.846Z,1.00
2023-02-15T04:54:21.649Z,1.00
2023-02-15T04:54:44.398Z,1.00
2023-02-15T04:55:08.326Z,1.00
2023-02-15T04:55:31.402Z,1.00
2023-02-15T04:55:54.121Z,1.00
2023-02-15T04:56:16.931Z,1.00
2023-02-15T04:56:40.185Z,1.00
2023-02-15T04:57:02.978Z,1.00
2023-02-15T04:57:25.784Z,1.00
2023-02-15T04:57:48.496Z,1.00
2023-02-15T04:58:11.303Z,1.00
2023-02-15T04:58:34.086Z,1.00
2023-02-15T04:58:56.764Z,1.00
2023-02-15T04:59:19.549Z,1.00
2023-02-15T04:59:42.245Z,1.00
2023-02-15T05:00:05.632Z,1.00
2023-02-15T05:00:28.653Z,1.00
2023-02-15T05:00:51.389Z,1.00
2023-02-15T05:01:14.262Z,1.00
2023-02-15T05:01:37.086Z,1.00
2023-02-15T05:01:59.928Z,1.00
2023-02-15T05:02:24.851Z,2.90
2023-02-15T05:02:47.555Z,1.00
2023-02-15T05:03:10.899Z,19.40
2023-02-15T05:03:33.658Z,60.50
2023-02-15T05:03:57.415Z,64.70
2023-02-15T05:04:21.578Z,70.20
2023-02-15T05:04:44.644Z,64.20
2023-02-15T05:05:08.319Z,95.70
2023-02-15T05:05:31.044Z,91.20
2023-02-15T05:05:53.873Z,78.20
2023-02-15T05:06:16.537Z,94.50
2023-02-15T05:06:39.565Z,56.40
2023-02-15T05:07:02.259Z,92.60
2023-02-15T05:07:24.994Z,93.70
2023-02-15T05:07:47.725Z,99.90
2023-02-15T05:08:11.414Z,99.90
2023-02-15T05:08:34.079Z,99.90
2023-02-15T05:08:56.811Z,99.90
2023-02-15T05:09:19.547Z,99.90
2023-02-15T05:09:42.379Z,47.10
2023-02-15T05:10:07.407Z,53.70
2023-02-15T05:10:30.315Z,34.30
2023-02-15T05:10:52.983Z,27.80
2023-02-15T05:11:15.699Z,4.70
2023-02-15T05:11:38.414Z,1.00
2023-02-15T05:12:01.192Z,1.00
2023-02-15T05:12:24.968Z,1.00
2023-02-15T05:12:48.175Z,1.00
2023-02-15T05:13:10.803Z,1.00
2023-02-15T05:13:33.657Z,1.00
2023-02-15T05:13:58.930Z,1.00
2023-02-15T05:14:21.917Z,1.00
2023-02-15T05:14:44.669Z,1.00
2023-02-15T05:15:07.968Z,1.00
2023-02-15T05:15:30.718Z,1.00
2023-02-15T05:15:53.773Z,1.00
2023-02-15T05:16:16.540Z,1.00
2023-02-15T05:16:41.872Z,1.00
2023-02-15T05:17:06.440Z,1.00
2023-02-15T05:17:29.177Z,1.00
2023-02-15T05:17:51.888Z,1.00
2023-02-15T05:18:16.876Z,1.00
2023-02-15T05:18:39.852Z,1.00
2023-02-15T05:19:02.673Z,1.00
2023-02-15T05:19:26.881Z,1.00
2023-02-15T05:19:49.612Z,1.00
2023-02-15T05:20:12.936Z,1.00
2023-02-15T05:20:35.682Z,1.00
2023-02-15T05:21:00.668Z,1.00
2023-02-15T05:21:23.482Z,1.00
2023-02-15T05:21:46.197Z,1.00
2023-02-15T05:22:09.442Z,1.00
2023-02-15T05:22:32.233Z,7.10
2023-02-15T05:22:54.978Z,1.00
2023-02-15T05:23:17.947Z,3.50
2023-02-15T05:23:40.647Z,18.00
2023-02-15T05:24:23.492Z,49.60
2023-02-15T05:25:04.648Z,97.40
2023-02-15T05:25:42.909Z,99.90
2023-02-15T05:26:24.486Z,99.90
2023-02-15T05:27:06.030Z,99.90
2023-02-15T05:27:47.360Z,99.90
2023-02-15T05:28:22.544Z,95.20
2023-02-15T05:28:45.295Z,78.90
2023-02-15T05:29:08.161Z,57.50
2023-02-15T05:29:30.878Z,39.10
2023-02-15T05:29:53.674Z,75.10
2023-02-15T05:30:16.990Z,63.30
2023-02-15T05:30:40.962Z,47.60
2023-02-15T05:31:05.825Z,44.50
2023-02-15T05:31:29.073Z,54.60
2023-02-15T05:31:52.986Z,65.80
2023-02-15T05:32:16.126Z,93.60
2023-02-15T05:32:40.055Z,96.80
2023-02-15T05:33:03.146Z,97.50
2023-02-15T05:33:25.928Z,99.90
2023-02-15T05:33:48.709Z,99.90
2023-02-15T05:34:11.643Z,99.90
2023-02-15T05:34:35.870Z,99.90
2023-02-15T05:34:58.721Z,99.90